Time;durP1;ratioP1;P1;durP2;ratioP2;P2;SDS_P1;SDS_P2;PMS_P1;PMS_P2;Temp;Humidity;BMP_temperature;BMP_pressure;BME280_temperature;BME280_humidity;BME280_pressure;Samples;Min_cycle;Max_cycle;Signal;HPM_P1;HPM_P2
2022/08/12 00:43:14;;;;;;;;;14.00;14.00;;;;;25.83;50.87;101282.19;4955931;28;45433;-94
2022/08/12 00:48:25;;;;;;;;;20.50;19.25;;;;;25.72;51.03;101280.47;4956190;28;45382;-95
2022/08/12 00:50:54;;;;;;;;;22.75;20.25;;;;;25.72;50.97;101276.91;4939043;28;45304;-95
2022/08/12 00:53:21;;;;;;;;;16.00;14.00;;;;;25.69;51.37;101274.25;4930756;28;46167;-94
2022/08/12 00:55:48;;;;;;;;;19.25;18.25;;;;;25.65;51.44;101276.97;4919577;28;45510;-95
2022/08/12 00:58:19;;;;;;;;;19.75;17.00;;;;;25.65;51.54;101273.38;4919743;28;45496;-94
2022/08/12 01:00:44;;;;;;;;;15.00;14.00;;;;;25.62;51.45;101270.69;4919499;28;45579;-94
2022/08/12 01:03:14;;;;;;;;;17.75;16.25;;;;;25.59;51.26;101268.06;4936780;28;45396;-95
2022/08/12 01:11:27;;;;;;;;;13.00;13.00;;;;;25.54;51.74;101270.78;4949679;28;45435;-95
2022/08/12 01:11:30;;;;;;;;;14.00;13.00;;;;;25.52;51.95;101267.22;4956536;28;45607;-95
2022/08/12 01:13:59;;;;;;;;;15.25;15.25;;;;;25.47;52.10;101258.31;4937622;28;46274;-95
2022/08/12 01:16:25;;;;;;;;;14.67;13.67;;;;;25.44;52.05;101256.53;4957195;28;45288;-95
2022/08/12 01:18:53;;;;;;;;;14.67;14.67;;;;;25.43;52.32;101263.72;4958990;28;45383;-95
2022/08/12 01:21:33;;;;;;;;;16.67;15.33;;;;;25.40;52.38;101266.44;4959873;28;45276;-95
2022/08/12 01:24:37;;;;;;;;;15.00;15.00;;;;;25.36;52.24;101261.97;4959694;28;46243;-95
2022/08/12 01:27:03;;;;;;;;;14.00;14.00;;;;;25.30;52.85;101262.94;4968059;28;45368;-96
2022/08/12 01:29:33;;;;;;;;;14.00;13.67;;;;;25.27;52.46;101259.38;4978838;28;45259;-95
2022/08/12 01:32:03;;;;;;;;;13.00;12.67;;;;;25.18;52.44;101257.66;4979561;28;45351;-94
2022/08/12 01:34:35;;;;;;;;;13.00;13.00;;;;;25.17;52.54;101259.47;4977869;28;45442;-95
2022/08/12 01:37:02;;;;;;;;;13.67;12.33;;;;;25.13;52.96;101260.38;4949272;28;45364;-95
2022/08/12 01:39:31;;;;;;;;;18.67;15.33;;;;;25.09;52.80;101251.47;4921885;28;45326;-95
2022/08/12 01:42:08;;;;;;;;;13.33;13.33;;;;;25.05;52.94;101252.38;4922822;28;45368;-95
2022/08/12 01:44:34;;;;;;;;;10.00;10.00;;;;;25.00;53.05;101254.16;4938877;28;45599;-95
2022/08/12 01:47:32;;;;;;;;;15.67;13.00;;;;;24.97;52.89;101254.22;4939960;28;45280;-95
2022/08/12 01:50:19;;;;;;;;;16.00;14.00;;;;;24.95;53.11;101251.53;4939805;28;45687;-95
2022/08/12 01:52:54;;;;;;;;;17.00;14.67;;;;;24.91;53.11;101252.47;4922830;28;45555;-95
2022/08/12 01:55:27;;;;;;;;;16.33;16.00;;;;;24.83;53.19;101239.09;4937928;28;48227;-95
2022/08/12 01:58:24;;;;;;;;;18.25;16.00;;;;;24.84;53.03;101242.66;4952393;28;46464;-95
2022/08/12 02:00:57;;;;;;;;;15.67;15.00;;;;;24.78;53.70;101238.22;4943416;28;45474;-95
2022/08/12 02:13:20;;;;;;;;;14.00;13.00;;;;;24.56;54.06;101222.22;4938649;28;45382;-96
2022/08/12 02:15:58;;;;;;;;;11.33;11.33;;;;;24.53;53.86;101217.78;4939339;28;45516;-95
2022/08/12 02:18:47;;;;;;;;;11.67;11.67;;;;;24.51;54.27;101224.94;4938182;28;47347;-96
2022/08/12 02:21:29;;;;;;;;;14.67;13.67;;;;;24.48;53.96;101221.41;4938820;28;45983;-96
2022/08/12 02:23:58;;;;;;;;;15.00;15.00;;;;;24.41;54.05;101209.78;4937513;28;45553;-95
2022/08/12 02:26:29;;;;;;;;;16.00;14.00;;;;;24.40;54.15;101208.03;4958273;28;45278;-95
2022/08/12 02:28:54;;;;;;;;;13.00;12.33;;;;;24.39;54.57;101211.59;4957366;28;45484;-95
2022/08/12 02:31:20;;;;;;;;;16.00;13.33;;;;;24.31;54.52;101195.56;4958370;28;45380;-94
2022/08/12 02:33:46;;;;;;;;;13.00;13.00;;;;;24.35;54.37;101212.53;4960403;28;45194;-94
2022/08/12 02:36:14;;;;;;;;;13.33;13.33;;;;;24.28;54.80;101200.91;4958938;28;45402;-94
2022/08/12 02:38:42;;;;;;;;;15.67;14.33;;;;;24.28;54.88;101207.19;4957783;28;45518;-94
2022/08/12 02:41:10;;;;;;;;;14.33;14.00;;;;;24.22;55.03;101201.84;4957127;28;45735;-95
2022/08/12 02:43:44;;;;;;;;;13.33;12.33;;;;;24.20;54.67;101198.25;4957240;28;45304;-94
2022/08/12 02:46:12;;;;;;;;;14.67;13.33;;;;;24.13;54.92;101192.03;4957611;28;45614;-95
2022/08/12 02:48:51;;;;;;;;;12.25;11.75;;;;;24.13;55.29;101199.19;4956427;28;48021;-94
2022/08/12 02:51:22;;;;;;;;;18.25;13.25;;;;;24.07;55.37;101190.25;4956844;28;45476;-95
2022/08/12 02:53:49;;;;;;;;;16.00;14.67;;;;;24.04;55.47;101190.28;4957413;28;45836;-95
2022/08/12 02:56:16;;;;;;;;;15.25;15.00;;;;;24.02;55.49;101184.03;4958463;28;45443;-95
2022/08/12 02:58:45;;;;;;;;;16.50;15.25;;;;;23.97;55.75;101186.72;4940569;28;46391;-95
2022/08/12 03:01:11;;;;;;;;;16.25;15.75;;;;;23.98;55.91;101190.31;4941089;28;45407;-95
2022/08/12 03:03:38;;;;;;;;;15.00;13.75;;;;;23.95;55.69;101184.94;4940361;28;45407;-94
2022/08/12 03:06:10;;;;;;;;;12.25;12.25;;;;;23.94;55.87;101175.16;4943926;28;45344;-95
2022/08/12 03:08:42;;;;;;;;;15.50;15.00;;;;;23.91;56.01;101177.81;4943329;28;47490;-95
2022/08/12 03:11:24;;;;;;;;;12.50;12.50;;;;;23.86;55.95;101177.84;4959108;28;45329;-95
2022/08/12 03:14:12;;;;;;;;;11.00;11.00;;;;;23.84;56.33;101179.63;4941105;28;45289;-95
2022/08/12 03:16:38;;;;;;;;;13.75;13.75;;;;;23.79;56.17;101171.59;4958597;28;45411;-94
2022/08/12 03:19:05;;;;;;;;;12.67;11.67;;;;;23.77;56.49;101173.41;4957226;28;45475;-94
2022/08/12 03:21:36;;;;;;;;;11.67;11.67;;;;;23.74;56.45;101168.03;4940920;28;45708;-95
2022/08/12 03:24:04;;;;;;;;;15.00;12.00;;;;;23.71;56.60;101178.78;4956128;28;45491;-95
2022/08/12 03:26:29;;;;;;;;;12.00;11.00;;;;;23.66;56.47;101174.31;4960500;28;45426;-95
2022/08/12 03:28:57;;;;;;;;;13.67;13.67;;;;;23.63;56.79;101173.44;4958284;28;45407;-95
2022/08/12 03:31:28;;;;;;;;;12.00;12.00;;;;;23.59;56.93;101167.19;4944844;28;45443;-94
2022/08/12 03:34:22;;;;;;;;;13.67;13.33;;;;;23.54;56.92;101163.63;4955616;28;45452;-95
2022/08/12 03:36:49;;;;;;;;;13.67;12.00;;;;;23.51;56.77;101169.91;4943144;28;45478;-94
2022/08/12 03:41:56;;;;;;;;;14.00;13.00;;;;;23.43;57.19;101161.84;4966936;28;45144;-95
2022/08/12 04:01:24;;;;;;;;;13.00;13.00;;;;;23.26;57.20;101144.91;4940405;28;45634;-95
2022/08/12 04:03:52;;;;;;;;;12.33;12.33;;;;;23.21;57.49;101134.22;4939129;28;45393;-95
2022/08/12 04:06:20;;;;;;;;;14.00;14.00;;;;;23.18;57.62;101131.53;4939283;28;45356;-95
2022/08/12 04:08:48;;;;;;;;;11.67;11.67;;;;;23.17;58.00;101133.31;4921468;28;45383;-95
2022/08/12 04:14:19;;;;;;;;;17.33;13.33;;;;;23.16;57.98;101133.31;4939568;28;45415;-94
2022/08/12 04:16:47;;;;;;;;;13.00;11.67;;;;;23.10;58.06;101131.53;4942980;28;45474;-94
2022/08/12 04:19:13;;;;;;;;;15.00;15.00;;;;;23.09;58.06;101125.28;4922507;28;45780;-96
2022/08/12 04:21:39;;;;;;;;;16.33;16.00;;;;;23.05;58.47;101125.28;4939232;28;47045;-95
2022/08/12 04:24:05;;;;;;;;;13.00;13.00;;;;;23.02;58.23;101120.84;4922640;28;45357;-95
2022/08/12 04:26:31;;;;;;;;;12.67;12.67;;;;;23.01;58.21;101119.06;4943052;28;45371;-95
2022/08/12 04:28:57;;;;;;;;;13.00;11.67;;;;;22.97;58.30;101117.28;4941801;28;45514;-95
2022/08/12 04:31:38;;;;;;;;;12.33;12.33;;;;;22.93;58.52;101108.38;4941273;28;47093;-95
2022/08/12 04:34:06;;;;;;;;;11.33;10.33;;;;;22.88;58.96;101108.34;4957212;28;45435;-96
2022/08/12 04:36:32;;;;;;;;;14.33;13.33;;;;;22.81;58.79;101105.66;4946564;28;45436;-94
2022/08/12 04:38:58;;;;;;;;;14.75;14.75;;;;;22.81;59.04;101109.25;4937988;28;45399;-95
2022/08/12 04:41:24;;;;;;;;;15.00;12.33;;;;;22.79;59.02;101100.34;4921085;28;48486;-94
2022/08/12 04:43:50;;;;;;;;;14.00;12.33;;;;;22.76;59.24;101101.22;4920834;28;45425;-94
2022/08/12 04:46:16;;;;;;;;;14.33;13.67;;;;;22.74;59.50;101088.72;4943072;28;45305;-96
2022/08/12 04:48:41;;;;;;;;;15.67;13.00;;;;;22.75;59.38;101090.53;4923664;28;45463;-94
2022/08/12 04:51:07;;;;;;;;;14.33;13.67;;;;;22.69;59.32;101083.34;4947347;28;45290;-94
2022/08/12 04:53:34;;;;;;;;;11.67;11.67;;;;;22.72;59.09;101094.09;4928082;28;45464;-96
2022/08/12 04:56:00;;;;;;;;;12.67;12.67;;;;;22.70;59.24;101093.22;4925723;28;45471;-95
2022/08/12 04:58:26;;;;;;;;;11.67;11.67;;;;;22.70;59.76;101092.31;4926353;28;45333;-95
2022/08/12 05:00:52;;;;;;;;;12.25;12.25;;;;;22.66;59.33;101076.22;4926570;28;47855;-95
2022/08/12 05:03:17;;;;;;;;;16.33;14.67;;;;;22.66;59.55;101076.22;4942849;28;45333;-95
2022/08/12 05:05:43;;;;;;;;;12.33;12.33;;;;;22.66;59.68;101068.19;4942631;28;45355;-95
2022/08/12 05:08:16;;;;;;;;;13.00;12.00;;;;;22.71;59.98;101061.97;4942051;28;49834;-96
2022/08/12 05:10:46;;;;;;;;;15.00;13.33;;;;;22.71;59.94;101061.97;4924601;28;47059;-95
2022/08/12 05:13:14;;;;;;;;;14.00;13.33;;;;;22.73;60.14;101058.41;4925361;28;46067;-95
2022/08/12 05:15:41;;;;;;;;;12.00;12.00;;;;;22.77;60.33;101065.56;4923772;28;45381;-95
2022/08/12 05:18:06;;;;;;;;;13.67;13.67;;;;;22.78;60.33;101061.09;4941926;28;45423;-95
2022/08/12 05:20:33;;;;;;;;;15.33;13.00;;;;;22.84;60.39;101062.88;4941533;28;57195;-96
2022/08/12 05:23:10;;;;;;;;;15.67;14.67;;;;;22.89;60.32;101066.44;4941701;28;45520;-94
2022/08/12 05:25:35;;;;;;;;;16.00;14.00;;;;;22.93;60.74;101054.84;4979284;28;45368;-95
2022/08/12 05:28:02;;;;;;;;;14.00;13.00;;;;;22.92;60.37;101063.75;4968330;28;45215;-95
2022/08/12 05:30:34;;;;;;;;;15.00;14.00;;;;;23.01;60.31;101070.00;4980910;28;46469;-95
2022/08/12 05:33:04;;;;;;;;;14.67;13.00;;;;;22.99;60.60;101065.53;4979157;28;45298;-95
2022/08/12 05:35:41;;;;;;;;;12.67;12.67;;;;;23.11;60.42;101066.41;4956126;28;45330;-95
2022/08/12 05:40:56;;;;;;;;;16.00;13.00;;;;;23.18;60.90;101046.75;4940690;28;45335;-95
2022/08/12 05:43:22;;;;;;;;;15.00;14.00;;;;;23.28;60.73;101073.50;4939594;28;45252;-93
2022/08/12 05:45:48;;;;;;;;;13.33;13.00;;;;;23.30;60.96;101067.22;4940678;28;45429;-95
2022/08/12 05:48:14;;;;;;;;;14.00;12.00;;;;;23.36;60.48;101074.38;4922732;28;45287;-95
2022/08/12 05:50:40;;;;;;;;;15.33;13.33;;;;;23.45;60.22;101086.84;4922590;28;46321;-95
2022/08/12 05:53:06;;;;;;;;;13.00;13.00;;;;;23.52;60.12;101090.44;4925292;28;45423;-94
2022/08/12 05:55:35;;;;;;;;;12.67;12.67;;;;;23.57;59.94;101099.34;4942467;28;45469;-95
2022/08/12 05:58:01;;;;;;;;;11.33;11.00;;;;;23.63;60.51;101091.25;4966319;28;45384;-95
2022/08/12 06:00:30;;;;;;;;;13.00;10.67;;;;;23.68;60.33;101102.00;4967259;28;45521;-95
2022/08/12 06:02:59;;;;;;;;;17.00;14.00;;;;;23.77;59.72;101104.63;4962655;28;45728;-95
2022/08/12 06:05:26;;;;;;;;;11.67;11.67;;;;;23.85;59.80;101107.25;4957311;28;45444;-95
2022/08/12 06:07:56;;;;;;;;;13.33;13.33;;;;;23.94;59.79;101105.44;4959152;28;45298;-95
2022/08/12 06:10:21;;;;;;;;;12.00;10.67;;;;;23.99;59.75;101104.50;4957517;28;47706;-95
2022/08/12 06:12:48;;;;;;;;;16.33;13.67;;;;;24.10;59.48;101108.91;4958426;28;45456;-95
2022/08/12 06:15:15;;;;;;;;;13.50;13.50;;;;;24.16;59.35;101103.53;4957637;28;45467;-94
2022/08/12 06:17:41;;;;;;;;;12.33;10.67;;;;;24.25;59.49;101115.97;4958735;28;45277;-94
2022/08/12 06:20:12;;;;;;;;;15.33;13.67;;;;;24.31;59.65;101113.31;4958151;28;45625;-96
2022/08/12 06:22:41;;;;;;;;;12.00;11.00;;;;;24.41;59.74;101111.44;4959063;28;45548;-95
2022/08/12 06:25:06;;;;;;;;;11.33;11.33;;;;;24.50;59.34;101110.50;4957183;28;45265;-95
2022/08/12 06:27:33;;;;;;;;;12.00;12.00;;;;;24.59;59.74;101114.00;4956914;28;45577;-95
2022/08/12 06:29:59;;;;;;;;;15.00;15.00;;;;;24.67;59.16;101126.47;4960279;28;46170;-94
2022/08/12 06:32:26;;;;;;;;;15.67;12.33;;;;;24.72;58.90;101128.22;4966541;28;45323;-94
2022/08/12 06:34:51;;;;;;;;;17.00;13.67;;;;;24.78;58.91;101139.81;4964789;28;45399;-95
2022/08/12 06:37:17;;;;;;;;;13.00;13.00;;;;;24.84;58.60;101130.78;4947170;28;45272;-94
2022/08/12 06:39:43;;;;;;;;;11.67;10.33;;;;;24.94;58.54;101136.09;4936777;28;48331;-94
2022/08/12 06:44:52;;;;;;;;;15.67;12.67;;;;;25.08;58.32;101144.03;4938548;28;45519;-95
2022/08/12 06:47:18;;;;;;;;;11.00;11.00;;;;;25.13;57.74;101162.81;4938416;28;45648;-95
2022/08/12 06:49:43;;;;;;;;;17.33;16.00;;;;;25.24;57.40;101168.06;4937379;28;47467;-94
2022/08/12 06:52:09;;;;;;;;;11.00;11.00;;;;;25.27;57.08;101163.56;4937404;28;45341;-95
2022/08/12 06:54:34;;;;;;;;;11.67;10.33;;;;;25.35;57.14;101170.66;4937643;28;45795;-94
2022/08/12 06:57:00;;;;;;;;;13.67;13.00;;;;;25.47;56.18;101180.38;4921532;28;45475;-94
2022/08/12 06:59:25;;;;;;;;;9.67;8.67;;;;;25.54;55.99;101182.09;4920624;28;46288;-95
2022/08/12 07:01:50;;;;;;;;;10.00;10.00;;;;;25.65;55.81;101187.34;4938537;28;45277;-94
2022/08/12 07:04:16;;;;;;;;;12.00;12.00;;;;;25.71;55.12;101192.69;4939036;28;45293;-94
2022/08/12 07:06:43;;;;;;;;;13.00;11.00;;;;;25.80;55.06;101205.13;4947129;28;45283;-94
2022/08/12 07:09:09;;;;;;;;;11.67;10.00;;;;;25.91;54.88;101210.41;4928809;28;47246;-94
2022/08/12 07:11:34;;;;;;;;;12.00;12.00;;;;;25.99;54.63;101213.00;4946363;28;45420;-94
2022/08/12 07:14:03;;;;;;;;;13.00;11.00;;;;;26.09;54.41;101220.06;4937720;28;53164;-94
2022/08/12 07:16:50;;;;;;;;;14.33;13.00;;;;;26.19;54.24;101220.81;4920739;28;45411;-94
2022/08/12 07:19:15;;;;;;;;;13.00;12.33;;;;;26.29;54.14;101207.22;4937448;28;45905;-94
2022/08/12 07:21:41;;;;;;;;;11.33;10.67;;;;;26.37;54.31;101210.72;4926443;28;45382;-94
2022/08/12 07:24:06;;;;;;;;;11.00;10.00;;;;;26.47;53.83;101208.81;4956027;28;53667;-94
2022/08/12 07:26:31;;;;;;;;;11.00;9.33;;;;;26.57;53.76;101208.72;4940173;28;45317;-94
2022/08/12 07:28:57;;;;;;;;;13.33;11.00;;;;;26.65;53.71;101218.44;4939325;28;47454;-95
2022/08/12 07:31:23;;;;;;;;;11.00;10.33;;;;;26.73;53.41;101203.97;4957383;28;45278;-93
2022/08/12 07:33:48;;;;;;;;;13.33;11.00;;;;;26.83;53.37;101210.09;4939257;28;45413;-94
2022/08/12 07:36:14;;;;;;;;;10.00;10.00;;;;;26.92;53.08;101214.44;4939855;28;45550;-94
2022/08/12 07:38:46;;;;;;;;;12.67;10.67;;;;;27.02;53.05;101216.06;4956885;28;45497;-94
2022/08/12 07:41:16;;;;;;;;;12.67;10.00;;;;;27.11;52.85;101212.34;4948611;28;45503;-94
2022/08/12 07:43:47;;;;;;;;;11.00;11.00;;;;;27.24;52.74;101215.72;4947772;28;45563;-94
2022/08/12 07:46:19;;;;;;;;;10.00;8.67;;;;;27.31;52.17;101212.03;4946647;28;45269;-94
2022/08/12 07:48:48;;;;;;;;;9.67;9.67;;;;;27.45;52.01;101222.56;4955674;28;47214;-94
2022/08/12 07:51:15;;;;;;;;;12.67;10.33;;;;;27.55;51.77;101225.97;4939867;28;45324;-94
2022/08/12 07:53:41;;;;;;;;;10.67;9.00;;;;;27.60;51.65;101220.47;4967906;28;45518;-94
2022/08/12 07:56:08;;;;;;;;;11.67;9.33;;;;;27.72;50.58;101229.25;4976749;28;45331;-95
2022/08/12 07:58:38;;;;;;;;;12.00;10.00;;;;;27.81;50.68;101228.25;4959250;28;47586;-94
2022/08/12 08:01:04;;;;;;;;;10.00;9.00;;;;;27.91;50.57;101223.56;4976238;28;45322;-94
2022/08/12 08:03:30;;;;;;;;;9.67;7.67;;;;;28.01;50.23;101230.53;4979576;28;45335;-95
2022/08/12 08:05:55;;;;;;;;;11.67;11.00;;;;;28.13;50.25;101237.47;4962057;28;45439;-94
2022/08/12 08:08:26;;;;;;;;;10.00;8.00;;;;;28.21;49.84;101235.50;4981644;28;45457;-94
2022/08/12 08:12:52;;;;;;;;;10.00;10.00;;;;;28.32;49.44;101235.25;4961768;28;45374;-94
2022/08/12 08:13:41;;;;;;;;;8.33;8.33;;;;;28.46;49.80;101236.78;4981652;28;45386;-95
2022/08/12 08:16:07;;;;;;;;;9.00;9.00;;;;;28.55;48.89;101241.13;4986397;28;45487;-95
2022/08/12 08:18:32;;;;;;;;;11.33;10.00;;;;;28.66;48.65;101244.44;4985732;28;45531;-94
2022/08/12 08:20:58;;;;;;;;;7.00;5.00;;;;;28.75;48.58;101245.16;4964453;28;45677;-94
2022/08/12 08:24:13;;;;;;;;;9.33;9.33;;;;;28.89;48.55;101250.22;4976992;28;45376;-93
2022/08/12 08:26:13;;;;;;;;;11.00;10.00;;;;;28.98;48.51;101246.41;4977140;28;45579;-95
2022/08/12 08:28:39;;;;;;;;;7.33;7.33;;;;;29.08;48.00;101255.19;4976912;28;46531;-94
2022/08/12 08:31:04;;;;;;;;;9.33;8.00;;;;;29.18;48.35;101256.75;4977099;28;45423;-94
2022/08/12 08:33:31;;;;;;;;;5.00;4.00;;;;;29.28;47.95;101259.22;4959625;28;45526;-93
2022/08/12 08:35:57;;;;;;;;;11.00;8.00;;;;;29.40;47.99;101245.41;4959033;28;45367;-94
2022/08/12 08:38:22;;;;;;;;;9.00;9.00;;;;;29.49;47.50;101252.38;4959218;28;46865;-93
2022/08/12 08:43:31;;;;;;;;;8.00;8.00;;;;;29.67;47.26;101248.28;4978405;28;45404;-94
2022/08/12 08:45:59;;;;;;;;;10.67;7.67;;;;;29.81;46.90;101252.47;4960555;28;51771;-94
2022/08/12 08:48:25;;;;;;;;;8.00;8.00;;;;;29.92;46.02;101256.69;4961430;28;48209;-95
2022/08/12 08:50:51;;;;;;;;;11.33;9.33;;;;;30.01;46.36;101256.41;4980199;28;45299;-94
2022/08/12 08:53:17;;;;;;;;;7.00;7.00;;;;;30.13;45.92;101262.41;4984142;28;45398;-93
2022/08/12 08:55:43;;;;;;;;;6.67;6.67;;;;;30.23;46.01;101264.78;4978486;28;45485;-95
2022/08/12 08:58:09;;;;;;;;;7.00;7.00;;;;;30.32;45.91;101252.81;4959074;28;47077;-94
2022/08/12 09:00:38;;;;;;;;;8.00;7.00;;;;;30.41;45.61;101256.19;4969055;28;45476;-94
2022/08/12 09:03:06;;;;;;;;;6.00;6.00;;;;;30.51;45.28;101265.78;4987674;28;45578;-93
2022/08/12 09:05:32;;;;;;;;;7.67;7.00;;;;;30.58;45.08;101254.75;4968647;28;45542;-94
2022/08/12 09:08:01;;;;;;;;;8.33;7.33;;;;;30.65;45.22;101256.34;4968633;28;47301;-93
2022/08/12 09:10:27;;;;;;;;;6.00;6.00;;;;;30.74;44.73;101264.19;4984088;28;45812;-95
2022/08/12 09:15:38;;;;;;;;;7.00;7.00;;;;;30.86;44.58;101260.19;4976830;28;45691;-94
2022/08/12 09:18:05;;;;;;;;;7.33;6.67;;;;;30.95;43.73;101260.88;4976219;28;46542;-94
2022/08/12 09:20:32;;;;;;;;;5.00;5.00;;;;;31.01;43.96;101257.94;4964947;28;45493;-94
2022/08/12 09:23:04;;;;;;;;;6.67;6.67;;;;;31.04;43.89;101249.72;4982703;28;45432;-94
2022/08/12 09:25:30;;;;;;;;;9.00;8.33;;;;;31.12;43.48;101246.75;4983559;28;45445;-93
2022/08/12 09:27:57;;;;;;;;;7.00;7.00;;;;;31.19;43.56;101252.84;4979814;28;45285;-93
2022/08/12 09:30:24;;;;;;;;;5.33;5.00;;;;;31.26;43.70;101246.25;4977250;28;45330;-94
2022/08/12 09:32:50;;;;;;;;;8.00;8.00;;;;;31.33;43.44;101241.53;4984821;28;45404;-93
2022/08/12 09:35:23;;;;;;;;;8.67;8.67;;;;;31.40;42.96;101234.03;4967083;28;45328;-95
2022/08/12 09:37:50;;;;;;;;;8.00;8.00;;;;;31.49;43.40;101238.28;4947882;28;48303;-94
2022/08/12 09:40:18;;;;;;;;;9.00;8.33;;;;;31.58;42.61;101235.25;4966566;28;45497;-95
2022/08/12 09:45:32;;;;;;;;;6.67;6.00;;;;;31.83;42.46;101247.91;4967572;28;45350;-95
2022/08/12 09:48:05;;;;;;;;;7.33;6.67;;;;;31.96;41.99;101233.88;4966621;28;45545;-94
2022/08/12 09:50:31;;;;;;;;;6.00;6.00;;;;;32.17;41.78;101237.66;4950042;28;45348;-94
2022/08/12 09:53:14;;;;;;;;;6.00;6.00;;;;;32.38;41.70;101234.16;4963290;28;45316;-94
2022/08/12 09:55:47;;;;;;;;;8.33;8.33;;;;;32.60;41.07;101234.16;4934317;28;45448;-95
2022/08/12 09:58:15;;;;;;;;;7.00;6.00;;;;;32.82;41.00;101227.00;4948186;28;48066;-93
2022/08/12 10:00:44;;;;;;;;;4.00;4.00;;;;;33.06;41.03;101227.81;4964010;28;45289;-94
2022/08/12 10:03:10;;;;;;;;;7.67;6.67;;;;;33.33;40.67;101224.88;4963714;28;45181;-95
2022/08/12 10:05:46;;;;;;;;;7.33;6.00;;;;;33.55;40.59;101233.91;4946347;28;44964;-93
2022/08/12 10:08:15;;;;;;;;;6.00;6.00;;;;;33.73;40.61;101234.03;4960685;28;45467;-95
2022/08/12 10:13:41;;;;;;;;;7.00;6.00;;;;;34.12;39.28;101215.94;4959985;28;45400;-95
2022/08/12 10:16:18;;;;;;;;;6.33;6.33;;;;;34.32;39.90;101217.75;4961927;28;45311;-94
2022/08/12 10:18:54;;;;;;;;;9.67;9.00;;;;;34.55;39.45;101217.56;4942771;28;47409;-95
2022/08/12 10:21:29;;;;;;;;;6.67;6.67;;;;;34.75;39.44;101200.22;4962806;28;45383;-95
2022/08/12 10:23:55;;;;;;;;;5.33;5.33;;;;;34.99;38.91;101196.34;4967739;28;45418;-94
2022/08/12 10:31:52;;;;;;;;;6.00;6.00;;;;;35.59;37.86;101196.88;4960389;28;45297;-95
2022/08/12 10:34:20;;;;;;;;;6.00;6.00;;;;;35.80;37.55;101195.81;4941128;28;45304;-95
2022/08/12 10:36:47;;;;;;;;;7.00;6.00;;;;;36.02;37.18;101187.31;4959621;28;45459;-94
2022/08/12 10:39:15;;;;;;;;;8.00;6.00;;;;;36.29;37.00;101186.69;4941090;28;48255;-94
2022/08/12 10:44:26;;;;;;;;;6.33;6.33;;;;;36.88;36.90;101190.59;4958348;28;45379;-94
2022/08/12 10:46:51;;;;;;;;;6.00;6.00;;;;;37.21;36.95;101185.91;4926600;28;45336;-95
2022/08/12 10:49:18;;;;;;;;;4.00;4.00;;;;;37.56;35.54;101187.47;4941204;28;47177;-95
2022/08/12 10:51:44;;;;;;;;;6.67;6.67;;;;;38.04;35.90;101182.66;4967417;28;45310;-95
2022/08/12 10:54:12;;;;;;;;;6.00;6.00;;;;;39.05;36.11;101178.81;4958362;28;45240;-94
2022/08/12 10:56:39;;;;;;;;;6.33;6.00;;;;;40.65;35.43;101179.22;4961886;28;45542;-94
2022/08/12 10:59:05;;;;;;;;;6.00;6.00;;;;;42.53;35.35;101177.22;4956734;28;48231;-95
2022/08/12 11:01:32;;;;;;;;;6.00;6.00;;;;;44.69;34.01;101163.81;4957988;28;45347;-95
2022/08/12 11:03:58;;;;;;;;;5.67;5.67;;;;;46.76;32.89;101166.63;4957341;28;45452;-94
2022/08/12 11:06:23;;;;;;;;;6.00;5.00;;;;;48.62;31.15;101164.47;4957911;28;45538;-94
2022/08/12 11:08:49;;;;;;;;;6.00;6.00;;;;;50.23;30.14;101174.91;4955521;28;47596;-94
2022/08/12 11:11:19;;;;;;;;;5.67;5.67;;;;;51.68;28.70;101177.84;4958993;28;45613;-96
2022/08/12 11:13:48;;;;;;;;;5.00;5.00;;;;;53.03;26.25;101171.00;4960856;28;45386;-95
2022/08/12 11:16:15;;;;;;;;;7.33;6.00;;;;;54.18;27.38;101168.66;4960289;28;45262;-95
2022/08/12 11:18:40;;;;;;;;;5.00;5.00;;;;;55.36;26.56;101163.59;4966270;28;46434;-93
2022/08/12 11:21:05;;;;;;;;;5.67;5.67;;;;;56.47;26.39;101157.94;4968716;28;45506;-94
2022/08/12 11:23:31;;;;;;;;;5.00;5.00;;;;;57.58;25.34;101165.03;4982186;28;44817;-93
2022/08/12 11:25:56;;;;;;;;;4.00;4.00;;;;;58.49;24.03;101170.78;4997806;28;45413;-94
2022/08/12 11:28:21;;;;;;;;;4.67;4.67;;;;;59.28;24.32;101156.47;4982834;28;65612;-92
2022/08/12 11:30:47;;;;;;;;;6.67;6.67;;;;;59.93;22.39;101153.47;4978698;28;49042;-94
2022/08/12 11:33:12;;;;;;;;;7.00;7.00;;;;;60.53;23.01;101142.84;4977056;28;59642;-94
2022/08/12 11:35:40;;;;;;;;;6.00;6.00;;;;;61.08;22.46;101143.06;4974213;28;45392;-94
2022/08/12 11:38:06;;;;;;;;;5.00;5.00;;;;;61.51;21.78;101141.53;4955815;28;47519;-95
2022/08/12 11:40:32;;;;;;;;;4.33;4.33;;;;;61.95;20.98;101146.25;4955769;28;45399;-94
2022/08/12 11:42:59;;;;;;;;;6.00;6.00;;;;;62.39;20.52;101152.84;4955668;28;45763;-94
2022/08/12 11:45:28;;;;;;;;;5.67;5.67;;;;;62.75;21.09;101151.38;4957276;28;45501;-94
2022/08/12 11:47:54;;;;;;;;;4.67;4.67;;;;;63.16;20.00;101149.81;4961821;28;46486;-94
2022/08/12 11:50:21;;;;;;;;;4.33;4.33;;;;;63.57;19.81;101134.84;4965362;28;45399;-93
2022/08/12 11:52:47;;;;;;;;;4.33;4.33;;;;;63.98;19.75;101136.88;4965012;28;45286;-94
2022/08/12 11:55:12;;;;;;;;;5.25;5.25;;;;;64.42;19.48;101131.69;4940008;28;45858;-93
2022/08/12 11:57:52;;;;;;;;;5.00;4.67;;;;;64.88;19.05;101140.38;4935891;28;47074;-93
2022/08/12 12:00:19;;;;;;;;;5.25;5.00;;;;;65.14;18.74;101145.09;4936737;28;45509;-93
2022/08/12 12:02:45;;;;;;;;;4.00;4.00;;;;;65.39;18.42;101135.53;4920198;28;45407;-94
2022/08/12 12:05:11;;;;;;;;;5.00;5.00;;;;;65.58;18.34;101131.97;4936903;28;45308;-94
2022/08/12 12:07:40;;;;;;;;;4.50;4.00;;;;;65.90;18.57;101118.31;4936457;28;45409;-94
2022/08/12 12:10:06;;;;;;;;;4.00;4.00;;;;;66.31;18.04;101124.75;4920354;28;45482;-94
2022/08/12 12:12:31;;;;;;;;;4.00;4.00;;;;;66.65;18.07;101126.66;4936971;28;45364;-95
2022/08/12 12:14:57;;;;;;;;;3.25;3.25;;;;;66.96;17.60;101124.53;4936435;28;45440;-95
2022/08/12 12:17:23;;;;;;;;;3.75;3.75;;;;;67.34;17.41;101120.84;4926143;28;46149;-94
2022/08/12 12:19:49;;;;;;;;;4.00;4.00;;;;;67.70;17.14;101119.38;4927051;28;45945;-94
2022/08/12 12:22:14;;;;;;;;;4.25;4.00;;;;;68.08;16.92;101118.38;4942695;28;45413;-94
2022/08/12 12:24:45;;;;;;;;;4.00;4.00;;;;;68.42;17.21;101118.31;4941421;28;54420;-95
2022/08/12 12:27:10;;;;;;;;;4.00;4.00;;;;;68.66;17.47;101116.41;4939572;28;47569;-94
2022/08/12 12:29:36;;;;;;;;;4.00;4.00;;;;;68.94;16.70;101110.63;4955915;28;45476;-94
2022/08/12 12:32:01;;;;;;;;;5.00;5.00;;;;;69.18;16.66;101107.44;4940125;28;45346;-95
2022/08/12 12:34:27;;;;;;;;;4.25;4.25;;;;;69.34;16.45;101100.50;4938309;28;45403;-94
2022/08/12 12:36:52;;;;;;;;;4.00;4.00;;;;;69.46;16.15;101109.38;4941942;28;60622;-94
2022/08/12 12:39:17;;;;;;;;;3.00;3.00;;;;;69.65;16.17;101107.44;4921617;28;61441;-93
2022/08/12 12:41:42;;;;;;;;;3.50;3.50;;;;;69.98;15.91;101109.16;4940089;28;45371;-93
2022/08/12 12:44:08;;;;;;;;;2.00;2.00;;;;;70.18;15.79;101105.69;4938319;28;45554;-92
2022/08/12 12:46:33;;;;;;;;;4.00;4.00;;;;;70.41;15.17;101093.25;4931912;28;54643;-92
2022/08/12 12:49:06;;;;;;;;;4.00;4.00;;;;;70.57;15.58;101090.78;4945981;28;45413;-93
2022/08/12 12:51:32;;;;;;;;;4.00;4.00;;;;;70.83;15.52;101094.88;4929452;28;44717;-93
2022/08/12 12:53:57;;;;;;;;;4.00;4.00;;;;;71.12;15.27;101092.47;4940114;28;45504;-93
2022/08/12 12:56:23;;;;;;;;;4.00;4.00;;;;;71.35;15.15;101095.19;4965643;28;69406;-93
2022/08/12 12:58:50;;;;;;;;;5.50;4.25;;;;;71.35;14.53;101095.19;4963658;28;45483;-94
2022/08/12 13:01:17;;;;;;;;;4.75;4.75;;;;;71.44;14.89;101080.75;4948604;28;45427;-94
2022/08/12 13:03:43;;;;;;;;;6.50;5.00;;;;;71.66;15.24;101082.53;4963752;28;45440;-94
2022/08/12 13:06:08;;;;;;;;;4.75;4.75;;;;;72.03;14.79;101073.44;4957662;28;47463;-93
2022/08/12 13:08:33;;;;;;;;;6.00;4.25;;;;;72.41;14.43;101072.84;4939416;28;49146;-93